createdAt,value
2018-09-22T10:03:16.181Z,18.70
2018-09-22T10:05:44.483Z,40.37
2018-09-22T10:08:12.602Z,29.67
2018-09-22T10:10:40.775Z,29.23
2018-09-22T10:13:08.946Z,27.83
2018-09-22T10:15:36.690Z,13.60
2018-09-22T10:18:04.589Z,13.63
2018-09-22T10:20:32.852Z,14.20
2018-09-22T10:23:00.718Z,25.67
2018-09-22T10:25:28.451Z,14.97
2018-09-22T10:27:56.227Z,19.30
2018-09-22T10:30:24.316Z,23.80
2018-09-22T10:32:52.485Z,15.87
2018-09-22T10:35:20.350Z,10.93
2018-09-22T10:37:48.080Z,11.67
2018-09-22T10:40:16.149Z,14.03
2018-09-22T10:42:44.358Z,12.00
2018-09-22T10:45:12.422Z,12.30
2018-09-22T10:47:40.577Z,14.90
2018-09-22T10:50:08.513Z,14.83
2018-09-22T10:52:36.485Z,12.40
2018-09-22T10:55:04.275Z,12.60
2018-09-22T10:57:32.049Z,10.47
2018-09-22T10:59:59.778Z,13.90
2018-09-22T11:02:27.526Z,11.60
2018-09-22T11:04:55.293Z,12.63
2018-09-22T11:07:23.055Z,12.97
2018-09-22T11:09:50.793Z,10.97
2018-09-22T11:12:18.538Z,9.73
2018-09-22T11:14:46.253Z,10.57
2018-09-22T11:17:13.974Z,11.63
2018-09-22T11:19:41.676Z,10.47
2018-09-22T11:22:09.426Z,12.33
2018-09-22T11:24:37.135Z,11.23
2018-09-22T11:27:04.992Z,12.30
2018-09-22T11:29:32.729Z,11.07
2018-09-22T11:32:00.438Z,10.80
2018-09-22T11:34:28.209Z,10.00
2018-09-22T11:36:55.934Z,9.73
2018-09-22T11:39:23.642Z,9.93
2018-09-22T11:41:51.358Z,10.37
2018-09-22T11:44:19.165Z,9.80
2018-09-22T11:46:46.894Z,10.93
2018-09-22T11:49:14.597Z,9.83
2018-09-22T11:51:42.324Z,8.40
2018-09-22T11:54:10.050Z,8.47
2018-09-22T11:56:37.775Z,8.20
2018-09-22T11:59:05.510Z,7.83
2018-09-22T12:01:33.253Z,6.90
2018-09-22T12:04:00.988Z,8.03
2018-09-22T12:06:28.741Z,7.93
2018-09-22T12:08:56.472Z,9.87
2018-09-22T12:11:24.192Z,9.33
2018-09-22T12:13:51.923Z,9.37
2018-09-22T12:16:19.648Z,8.73
2018-09-22T12:18:47.394Z,8.57
2018-09-22T12:21:15.152Z,8.77
2018-09-22T12:23:42.911Z,8.20
2018-09-22T12:26:10.642Z,7.67
2018-09-22T12:28:38.369Z,7.43
2018-09-22T12:31:06.106Z,8.03
2018-09-22T12:33:33.877Z,9.00
2018-09-22T12:36:01.717Z,7.07
2018-09-22T12:38:29.434Z,9.97
2018-09-22T12:40:57.155Z,9.10
2018-09-22T12:43:24.874Z,8.50
2018-09-22T12:45:52.621Z,8.50
2018-09-22T12:48:20.334Z,8.73
2018-09-22T12:50:48.094Z,7.83
2018-09-22T12:53:15.825Z,7.70
2018-09-22T12:55:43.583Z,7.03
2018-09-22T12:58:11.330Z,6.20
2018-09-22T13:00:39.093Z,6.97
2018-09-22T13:03:06.866Z,7.27
2018-09-22T13:05:34.598Z,7.60
2018-09-22T13:08:02.363Z,8.33
2018-09-22T13:10:30.092Z,7.87
2018-09-22T13:12:57.826Z,6.57
2018-09-22T13:15:25.570Z,7.50
2018-09-22T13:17:53.282Z,7.47
2018-09-22T13:20:21.104Z,7.73
2018-09-22T13:22:48.758Z,6.87
2018-09-22T13:25:16.483Z,7.03
2018-09-22T13:27:44.210Z,5.87
2018-09-22T13:30:11.949Z,6.10
2018-09-22T13:32:39.661Z,6.63
2018-09-22T13:35:07.713Z,7.03
2018-09-22T13:37:35.432Z,5.50
2018-09-22T13:40:03.223Z,6.30
2018-09-22T13:42:30.993Z,5.30
2018-09-22T13:44:58.742Z,6.37
2018-09-22T13:47:26.497Z,5.63
2018-09-22T13:49:54.219Z,6.53
2018-09-22T13:52:21.957Z,4.80
2018-09-22T13:54:49.689Z,5.57
2018-09-22T13:57:17.426Z,5.27
2018-09-22T13:59:45.156Z,4.60
2018-09-22T14:02:12.907Z,5.10
2018-09-22T14:04:40.629Z,5.67
2018-09-22T14:07:08.366Z,8.10
2018-09-22T14:09:36.089Z,5.50
2018-09-22T14:12:03.800Z,5.20
2018-09-22T14:14:31.550Z,6.43
2018-09-22T14:16:59.299Z,5.17
2018-09-22T14:19:27.018Z,4.93
2018-09-22T14:21:54.774Z,5.83
2018-09-22T14:24:22.573Z,4.50
2018-09-22T14:26:50.268Z,4.90
2018-09-22T14:29:18.076Z,6.87
2018-09-22T14:31:45.849Z,6.50
2018-09-22T14:34:13.597Z,7.50
2018-09-22T14:36:41.319Z,5.80
2018-09-22T14:39:09.081Z,5.07
2018-09-22T14:41:36.798Z,4.83
2018-09-22T14:44:04.518Z,4.63
2018-09-22T14:46:32.238Z,5.87
2018-09-22T14:48:59.964Z,4.37
2018-09-22T14:51:27.718Z,5.83
2018-09-22T14:53:55.434Z,4.83
2018-09-22T14:56:23.164Z,4.53
2018-09-22T14:58:50.930Z,7.50
2018-09-22T15:01:18.674Z,5.87
2018-09-22T15:03:46.461Z,5.67
2018-09-22T15:06:14.180Z,5.13
2018-09-22T15:08:41.893Z,5.90
2018-09-22T15:11:09.654Z,5.43
2018-09-22T15:13:37.390Z,5.63
2018-09-22T15:16:05.114Z,6.23
2018-09-22T15:18:32.841Z,6.63
2018-09-22T15:21:00.553Z,7.20
2018-09-22T15:23:28.265Z,6.00
2018-09-22T15:25:56.027Z,6.07
2018-09-22T15:28:23.777Z,5.87
2018-09-22T15:30:51.549Z,5.60
2018-09-22T15:33:19.294Z,6.20
2018-09-22T15:35:47.097Z,6.57
2018-09-22T15:38:14.826Z,6.60
2018-09-22T15:40:42.546Z,6.23
2018-09-22T15:43:10.292Z,5.73
2018-09-22T15:45:38.068Z,6.57
2018-09-22T15:48:05.858Z,9.57
2018-09-22T15:50:33.563Z,7.70
2018-09-22T15:53:01.322Z,7.17
2018-09-22T15:55:29.058Z,6.93
2018-09-22T15:57:56.751Z,7.10
2018-09-22T16:00:26.787Z,6.27
2018-09-22T16:02:54.498Z,6.33
2018-09-22T16:05:22.198Z,6.37
2018-09-22T16:07:49.966Z,7.27
2018-09-22T16:10:17.710Z,7.13
2018-09-22T16:12:45.431Z,7.10
2018-09-22T16:15:13.141Z,8.27
2018-09-22T16:17:40.857Z,7.50
2018-09-22T16:20:08.592Z,7.40
2018-09-22T16:22:36.294Z,11.37
2018-09-22T16:25:04.115Z,8.90
2018-09-22T16:27:31.823Z,9.80
2018-09-22T16:29:59.530Z,8.60
2018-09-22T16:32:27.609Z,8.17
2018-09-22T16:34:55.346Z,8.83
2018-09-22T16:37:23.095Z,8.50
2018-09-22T16:39:50.875Z,9.07
2018-09-22T16:42:18.611Z,9.10
2018-09-22T16:44:46.359Z,9.60
2018-09-22T16:47:14.087Z,9.13
2018-09-22T16:49:41.789Z,9.37
2018-09-22T16:52:09.503Z,9.70
2018-09-22T16:54:37.218Z,8.90
2018-09-22T16:57:04.987Z,10.83
2018-09-22T16:59:32.773Z,10.93
2018-09-22T17:03:03.675Z,10.97
2018-09-22T17:05:31.406Z,11.73
2018-09-22T17:07:59.145Z,11.43
2018-09-22T17:10:26.871Z,14.27
2018-09-22T17:12:54.631Z,12.63
2018-09-22T17:15:22.345Z,12.57
2018-09-22T17:17:50.146Z,13.83
2018-09-22T17:20:17.895Z,14.47
2018-09-22T17:22:45.608Z,14.00
2018-09-22T17:25:13.378Z,13.60
2018-09-22T17:27:41.147Z,14.03
2018-09-22T17:30:08.889Z,13.83
2018-09-22T17:32:36.621Z,14.37
2018-09-22T17:35:04.427Z,12.80
2018-09-22T17:37:32.130Z,14.43
2018-09-22T17:39:59.842Z,15.00
2018-09-22T17:42:27.582Z,15.13
2018-09-22T17:44:55.327Z,14.63
2018-09-22T17:47:23.063Z,15.30
2018-09-22T17:49:50.814Z,16.30
2018-09-22T17:52:18.556Z,15.47
2018-09-22T17:54:46.272Z,16.07
2018-09-22T17:57:14.005Z,16.03
2018-09-22T17:59:41.795Z,15.50
2018-09-22T18:02:09.712Z,15.17
2018-09-22T18:04:37.461Z,13.87
2018-09-22T18:07:05.320Z,15.53
2018-09-22T18:09:33.065Z,15.30
2018-09-22T18:12:00.823Z,14.30
2018-09-22T18:14:29.409Z,13.60
2018-09-22T18:16:57.149Z,13.33
2018-09-22T18:19:24.981Z,12.97
2018-09-22T18:21:52.937Z,12.97
2018-09-22T18:24:20.781Z,12.30
2018-09-22T18:26:48.502Z,13.23
2018-09-22T18:29:16.230Z,12.57
2018-09-22T18:31:43.994Z,12.07
2018-09-22T18:34:12.158Z,10.97
2018-09-22T18:36:39.933Z,10.90
2018-09-22T18:39:08.146Z,10.80
2018-09-22T18:41:36.141Z,10.07
2018-09-22T18:44:04.170Z,9.27
2018-09-22T18:46:31.933Z,9.17
2018-09-22T18:48:59.706Z,9.00
2018-09-22T18:51:27.425Z,9.10
2018-09-22T18:53:55.139Z,8.30
2018-09-22T18:56:22.893Z,7.70
2018-09-22T18:58:50.678Z,8.13
2018-09-22T19:01:18.632Z,8.40
2018-09-22T19:03:46.393Z,7.50
2018-09-22T19:06:14.146Z,8.00
2018-09-22T19:08:41.860Z,7.67
2018-09-22T19:11:09.666Z,7.40
2018-09-22T19:13:41.898Z,8.20
2018-09-22T19:16:15.033Z,7.87
2018-09-22T19:18:48.494Z,7.50
2018-09-22T19:21:23.437Z,7.63
2018-09-22T19:23:58.776Z,7.53
2018-09-22T19:26:31.929Z,8.07
2018-09-22T19:29:17.126Z,7.80
2018-09-22T19:31:50.442Z,7.70
2018-09-22T19:34:22.379Z,7.43
2018-09-22T19:36:55.242Z,7.60
2018-09-22T19:39:54.750Z,8.00
2018-09-22T19:42:30.003Z,8.73
2018-09-22T19:45:04.978Z,7.80
2018-09-22T19:47:56.850Z,8.23
2018-09-22T19:50:28.909Z,7.97
2018-09-22T19:52:57.719Z,8.10
2018-09-22T19:55:25.453Z,7.53
2018-09-22T19:57:53.215Z,8.30
2018-09-22T20:00:20.933Z,8.37
2018-09-22T20:02:48.668Z,7.90
2018-09-22T20:05:16.394Z,6.60
2018-09-22T20:07:44.102Z,7.83
2018-09-22T20:10:11.823Z,6.97
2018-09-22T20:12:39.582Z,7.60
2018-09-22T20:15:07.318Z,7.10
2018-09-22T20:17:35.095Z,7.27
2018-09-22T20:20:02.818Z,8.30
2018-09-22T20:22:30.573Z,7.17
2018-09-22T20:24:58.296Z,7.73
2018-09-22T20:27:26.047Z,8.17
2018-09-22T20:29:53.766Z,8.70
2018-09-22T20:32:21.578Z,8.60
2018-09-22T20:34:49.287Z,7.27
2018-09-22T20:37:17.020Z,8.43
2018-09-22T20:39:44.766Z,8.93
2018-09-22T20:42:12.482Z,8.73
2018-09-22T20:44:40.203Z,7.60
2018-09-22T20:47:07.934Z,8.30
2018-09-22T20:49:35.661Z,7.00
2018-09-22T20:52:03.369Z,7.50
2018-09-22T20:54:31.083Z,7.40
2018-09-22T20:56:58.810Z,7.57
2018-09-22T20:59:26.528Z,7.53
2018-09-22T21:01:54.309Z,7.07
2018-09-22T21:04:22.034Z,7.60
2018-09-22T21:06:49.742Z,6.83
2018-09-22T21:09:17.451Z,7.03
2018-09-22T21:11:45.167Z,7.47
2018-09-22T21:14:12.900Z,7.33
2018-09-22T21:16:40.602Z,7.50
2018-09-22T21:19:08.402Z,6.67
2018-09-22T21:21:36.126Z,7.50
2018-09-22T21:24:03.873Z,7.93
2018-09-22T21:26:31.615Z,8.27
2018-09-22T21:28:59.335Z,7.20
2018-09-22T21:31:27.058Z,6.97
2018-09-22T21:33:54.802Z,7.83
2018-09-22T21:36:22.513Z,7.40
2018-09-22T21:38:50.241Z,6.87
2018-09-22T21:41:17.943Z,7.57
2018-09-22T21:43:45.730Z,6.73
2018-09-22T21:46:13.437Z,6.93
2018-09-22T21:48:41.159Z,6.63
2018-09-22T21:51:08.880Z,7.30
2018-09-22T21:53:36.715Z,6.93
2018-09-22T21:56:04.466Z,6.83
2018-09-22T21:58:32.194Z,7.00
2018-09-22T22:00:59.941Z,6.20
2018-09-22T22:03:27.713Z,7.10
2018-09-22T22:05:55.476Z,6.73
2018-09-22T22:08:23.282Z,6.73
2018-09-22T22:10:51.043Z,6.80
2018-09-22T22:13:18.805Z,6.47
2018-09-22T22:15:46.608Z,7.27
2018-09-22T22:18:14.408Z,7.77
2018-09-22T22:20:42.173Z,7.20
2018-09-22T22:23:10.022Z,6.80
2018-09-22T22:25:37.927Z,6.57
2018-09-22T22:28:05.942Z,6.90
2018-09-22T22:30:33.720Z,7.03
2018-09-22T22:33:01.468Z,6.70
2018-09-22T22:35:29.233Z,6.77
2018-09-22T22:37:56.985Z,7.37
2018-09-22T22:40:24.755Z,6.67
2018-09-22T22:42:52.527Z,7.20
2018-09-22T22:45:20.336Z,7.30
2018-09-22T22:47:49.971Z,6.13
2018-09-22T22:50:20.267Z,5.97
2018-09-22T22:52:48.644Z,6.00
2018-09-22T22:55:16.384Z,6.60
2018-09-22T22:57:44.078Z,6.27
2018-09-22T23:00:11.800Z,6.20
2018-09-22T23:02:40.068Z,6.07
2018-09-22T23:05:07.790Z,6.27
2018-09-22T23:07:35.500Z,6.00
2018-09-22T23:10:03.265Z,6.77
2018-09-22T23:12:30.974Z,6.07
2018-09-22T23:14:59.672Z,6.20
2018-09-22T23:17:27.394Z,6.00
2018-09-22T23:19:55.136Z,6.43
2018-09-22T23:22:22.838Z,6.33
2018-09-22T23:24:50.578Z,6.50
2018-09-22T23:27:18.326Z,7.00
2018-09-22T23:29:46.061Z,6.57
2018-09-22T23:32:13.906Z,7.00
2018-09-22T23:34:41.707Z,6.10
2018-09-22T23:37:09.519Z,6.07
2018-09-22T23:39:37.228Z,7.03
2018-09-22T23:42:04.971Z,6.90
2018-09-22T23:44:32.689Z,6.60
2018-09-22T23:47:00.423Z,6.20
2018-09-22T23:49:28.124Z,6.67
2018-09-22T23:51:56.164Z,6.37
2018-09-22T23:54:23.955Z,6.23
2018-09-22T23:56:52.157Z,6.43
2018-09-22T23:59:20.230Z,6.43
